Currituck — AEFR — position and weather

sailwx.info

Track history (hours):
 
Tides and Currents Weather Stations Pressure Air Temp Water Temp Dewpoint Dewpoint Depression Visibility Wind Speed Wind Dir Waves Ship Positions

Currituck

Last reported at 2014-Oct-18 19:28 UTC. Time now 2014-Oct-21 07:19 UTC.
Position N 36°47' W 076°18'.

Length 45 m; draft 3 m.

Type: Dredging. MMSI: 369970446.

Date/timePositionNaut miles runAvg speedWind from/ knotsBaromVisibWave heightAir tempDewpointWater temp
2014-Oct-18 19:28N 36°47' W 076°18'7 7.4
2014-Oct-18 18:33N 36°53' W 076°20'8 7.6
2014-Oct-18 17:33N 37°00' W 076°16'8 7.6
2014-Oct-18 16:33N 36°59' W 076°07'4 4.4
2014-Oct-18 15:33N 36°54' W 076°05'1 0.7
2014-Oct-18 14:32N 36°55' W 076°05'1 0.7
2014-Oct-18 13:33N 36°54' W 076°05'0 0.0
2014-Oct-18 12:32N 36°54' W 076°05'0 0.2
2014-Oct-18 11:33N 36°55' W 076°06'0 0.2
2014-Oct-18 10:32N 36°54' W 076°05'0 0.1
2014-Oct-18 09:33N 36°54' W 076°05'0 0.1
2014-Oct-18 08:24N 36°54' W 076°05'0 0.1
2014-Oct-18 07:33N 36°54' W 076°05'0 0.0
2014-Oct-18 06:24N 36°54' W 076°05'0 0.0
2014-Oct-18 05:22N 36°54' W 076°05'1 1.2
2014-Oct-18 04:28N 36°55' W 076°05'1 1.0
2014-Oct-18 03:33N 36°55' W 076°05'0 0.2
2014-Oct-18 02:33N 36°54' W 076°05'0 0.0
2014-Oct-18 01:33N 36°54' W 076°05'1 1.0
2014-Oct-18 00:32N 36°55' W 076°06'1 0.7
2014-Oct-17 23:33N 36°55' W 076°05'0 0.4
2014-Oct-17 22:33N 36°54' W 076°05'1 0.7
2014-Oct-17 21:33N 36°55' W 076°05'0 0.3
2014-Oct-17 20:33N 36°55' W 076°06'0 0.3
2014-Oct-17 19:32N 36°55' W 076°05'1 0.7
2014-Oct-17 18:30N 36°54' W 076°05'0 0.1
2014-Oct-17 17:30N 36°54' W 076°05'0 0.0
2014-Oct-17 16:33N 36°54' W 076°05'0 0.5
2014-Oct-17 15:33N 36°55' W 076°05'1 0.5
2014-Oct-17 14:33N 36°55' W 076°06'0 0.3
2014-Oct-17 13:33N 36°55' W 076°05'0 0.3
2014-Oct-17 12:33N 36°55' W 076°06'0 0.1
2014-Oct-17 11:33N 36°55' W 076°06'1 1.1
2014-Oct-17 10:33N 36°54' W 076°05'0 0.1
2014-Oct-17 09:32N 36°54' W 076°05'0 0.2
2014-Oct-17 08:32N 36°54' W 076°05'0 0.1
2014-Oct-17 07:33N 36°54' W 076°05'0 0.1
2014-Oct-17 06:33N 36°54' W 076°05'0 0.1
2014-Oct-17 05:33N 36°54' W 076°05'0 0.0
2014-Oct-17 04:32N 36°54' W 076°05'1 0.7
2014-Oct-17 03:30N 36°55' W 076°05'1 0.7
2014-Oct-17 02:33N 36°54' W 076°05'0 0.0
2014-Oct-17 01:27N 36°54' W 076°05'0 0.2
2014-Oct-17 00:33N 36°55' W 076°06'0 0.2
2014-Oct-16 23:33N 36°55' W 076°05'0 0.4
2014-Oct-16 22:32N 36°54' W 076°05'1 1.0
2014-Oct-16 21:33N 36°55' W 076°06'1 0.8
2014-Oct-16 20:31N 36°54' W 076°06'1 0.8
2014-Oct-16 19:33N 36°55' W 076°06'1 0.9
2014-Oct-16 18:33N 36°54' W 076°05'0 0.0
2014-Oct-16 17:32N 36°54' W 076°05'0 0.1
2014-Oct-16 16:33N 36°54' W 076°05'0 0.2
2014-Oct-16 15:32N 36°54' W 076°05'0 0.1
2014-Oct-16 14:33N 36°54' W 076°06'0 0.1
2014-Oct-16 13:32N 36°54' W 076°05'0 0.2
2014-Oct-16 12:33N 36°55' W 076°06'0 0.3
2014-Oct-16 11:32N 36°54' W 076°05'0 0.0
2014-Oct-16 10:24N 36°54' W 076°05'0 0.2
2014-Oct-16 09:33N 36°54' W 076°05'0 0.2
2014-Oct-16 08:32N 36°55' W 076°05'1 0.7
2014-Oct-16 07:33N 36°55' W 076°06'0 0.5
2014-Oct-16 06:31N 36°55' W 076°05'1 0.9
2014-Oct-16 05:33N 36°54' W 076°05'0 0.1
2014-Oct-16 04:31N 36°54' W 076°05'0 0.0
2014-Oct-16 03:30N 36°54' W 076°05'0 0.0
2014-Oct-16 02:30N 36°54' W 076°05'0 0.0
2014-Oct-16 01:29N 36°54' W 076°05'1 0.7
2014-Oct-16 00:33N 36°55' W 076°05'1 0.6
2014-Oct-15 23:33N 36°54' W 076°05'0 0.1
2014-Oct-15 22:33N 36°54' W 076°05'0 0.1
2014-Oct-15 21:33N 36°54' W 076°05'1 0.6
2014-Oct-15 20:31N 36°55' W 076°05'0 0.1
2014-Oct-15 19:29N 36°55' W 076°05'0 0.4
2014-Oct-15 18:33N 36°55' W 076°05'1 0.5
2014-Oct-15 17:27N 36°54' W 076°05'0 0.0
2014-Oct-15 16:33N 36°54' W 076°05'0 0.0
2014-Oct-15 15:32N 36°54' W 076°05'0 0.0
2014-Oct-15 14:33N 36°54' W 076°05'0 0.0
2014-Oct-15 13:33N 36°54' W 076°05'1 0.5
2014-Oct-15 12:34N 36°55' W 076°05'0 0.2
2014-Oct-15 11:33N 36°54' W 076°06'0 0.3
2014-Oct-15 10:33N 36°54' W 076°05'0 0.2
2014-Oct-15 09:32N 36°54' W 076°06'1 0.9
2014-Oct-15 08:32N 36°55' W 076°06'1 0.6
2014-Oct-15 07:33N 36°55' W 076°05'0 0.1
2014-Oct-15 06:33N 36°55' W 076°05'0 0.3
2014-Oct-15 05:33N 36°54' W 076°05'0 0.1
2014-Oct-15 04:33N 36°54' W 076°05'0 0.0
2014-Oct-15 03:31N 36°54' W 076°05'0 0.0
2014-Oct-15 02:32N 36°54' W 076°05'0 0.2
2014-Oct-15 01:33N 36°54' W 076°06'0 0.3
2014-Oct-15 00:29N 36°55' W 076°05'1 0.7
2014-Oct-14 23:33N 36°55' W 076°06'1 0.8
2014-Oct-14 22:04N 36°54' W 076°05'1 1.3
2014-Oct-14 21:29N 36°55' W 076°05'1 0.7
2014-Oct-14 20:27N 36°54' W 076°05'0 0.2
2014-Oct-14 19:33N 36°54' W 076°05'1 1.1
2014-Oct-14 18:31N 36°55' W 076°06'1 0.2
2014-Oct-14 14:33N 36°54' W 076°06'0 0.3
2014-Oct-14 13:28N 36°55' W 076°05'0 0.3
2014-Oct-14 12:32N 36°55' W 076°06'0 0.3
2014-Oct-14 11:33N 36°54' W 076°05'0 0.1
2014-Oct-14 10:33N 36°54' W 076°05'1 0.6
2014-Oct-14 09:25N 36°55' W 076°05'1 0.7
2014-Oct-14 08:34N 36°55' W 076°06'1 0.8
2014-Oct-14 07:29N 36°54' W 076°06'1 1.0
2014-Oct-14 06:33N 36°55' W 076°06'1 1.0
2014-Oct-14 05:31N 36°54' W 076°05'0 0.1
2014-Oct-14 04:32N 36°54' W 076°05'0 0.0
2014-Oct-14 03:30N 36°54' W 076°05'0 0.0
2014-Oct-14 02:24N 36°54' W 076°05'0 0.0
2014-Oct-14 01:32N 36°54' W 076°05'0 0.0
2014-Oct-14 00:31N 36°54' W 076°05'0 0.0
2014-Oct-13 23:31N 36°54' W 076°05'0 0.0
2014-Oct-13 22:33N 36°54' W 076°05'0 0.1
2014-Oct-13 21:32N 36°54' W 076°05'0 0.1
2014-Oct-13 20:34N 36°54' W 076°05'0 0.1
2014-Oct-13 19:33N 36°54' W 076°05'0 0.0
2014-Oct-13 18:32N 36°54' W 076°05'1 1.0
2014-Oct-13 17:33N 36°55' W 076°06'0 0.1
2014-Oct-13 16:32N 36°55' W 076°05'1 0.9
2014-Oct-13 15:30N 36°54' W 076°05'1 1.3
2014-Oct-13 14:33N 36°55' W 076°06'1 0.6
2014-Oct-13 13:32N 36°55' W 076°05'1 0.6
2014-Oct-13 12:32N 36°54' W 076°05'0 0.0
2014-Oct-13 11:33N 36°54' W 076°05'0 0.0
2014-Oct-13 10:33N 36°54' W 076°05'0 0.3
2014-Oct-13 09:32N 36°55' W 076°05'0 0.3
2014-Oct-13 08:32N 36°55' W 076°05'1 0.7
2014-Oct-13 07:32N 36°54' W 076°05'0 0.0
2014-Oct-13 06:32N 36°54' W 076°05'0 0.0
2014-Oct-13 05:30N 36°54' W 076°05'0 0.1
2014-Oct-13 04:31N 36°54' W 076°05'0 0.0
2014-Oct-13 03:33N 36°54' W 076°05'0 0.0
2014-Oct-13 02:31N 36°54' W 076°05'0 0.0
2014-Oct-13 01:28N 36°54' W 076°05'0 0.0
2014-Oct-13 00:33N 36°54' W 076°05'0 0.0
2014-Oct-12 23:32N 36°54' W 076°05'0 0.0
2014-Oct-12 22:26N 36°54' W 076°05'1 1.0
2014-Oct-12 21:32N 36°55' W 076°06'1 0.8
2014-Oct-12 20:28N 36°54' W 076°06'1 0.9
2014-Oct-12 19:31N 36°55' W 076°06'1 0.5
2014-Oct-12 18:31N 36°55' W 076°05'0 0.4
2014-Oct-12 17:31N 36°55' W 076°06'1 0.1
2014-Oct-12 05:30N 36°54' W 076°06'0 0.1
2014-Oct-12 04:33N 36°54' W 076°05'0 0.0
2014-Oct-12 03:33N 36°54' W 076°05'0 0.1
2014-Oct-12 02:30N 36°54' W 076°05'0 0.4
2014-Oct-12 01:33N 36°54' W 076°05'0 0.0
2014-Oct-12 00:29N 36°54' W 076°05'0 0.2
2014-Oct-11 23:04N 36°54' W 076°05'3 5.2
2014-Oct-11 22:33N 36°57' W 076°04'181 5.5
2014-Oct-10 13:33N 39°34' W 074°12'9 9.3
2014-Oct-10 12:34N 39°42' W 074°06'3 2.7
2014-Oct-10 11:34N 39°45' W 074°07'0 0.0
2014-Oct-10 10:34N 39°45' W 074°07'0 0.0
2014-Oct-10 09:34N 39°45' W 074°07'0 0.0
2014-Oct-10 08:33N 39°45' W 074°07'0 0.0
2014-Oct-10 07:34N 39°45' W 074°07'4 4.0
2014-Oct-10 06:34N 39°48' W 074°03'9 8.7
2014-Oct-10 05:33N 39°57' W 074°01'20 8.7
2014-Oct-10 03:16N 40°16' W 073°56'13 3.2
2014-Oct-09 23:12N 40°29' W 074°00'1 0.1
2014-Oct-09 09:15N 40°28' W 074°02'0 0.0
2014-Oct-08 20:07N 40°29' W 074°01'  
Track history (hours):
 
Tides and Currents Weather Stations Pressure Air Temp Water Temp Dewpoint Dewpoint Depression Visibility Wind Speed Wind Dir Waves Ship Positions

Currituck

Last reported at 2014-Oct-18 19:28 UTC. Time now 2014-Oct-21 07:19 UTC.
Position N 36°47' W 076°18'.

Length 45 m; draft 3 m.

Type: Dredging. MMSI: 369970446.

Date/timePositionNaut miles runAvg speedWind from/ knotsBaromVisibWave heightAir tempDewpointWater temp
2014-Oct-18 19:28N 36°47' W 076°18'7 7.4
2014-Oct-18 18:33N 36°53' W 076°20'8 7.6
2014-Oct-18 17:33N 37°00' W 076°16'8 7.6
2014-Oct-18 16:33N 36°59' W 076°07'4 4.4
2014-Oct-18 15:33N 36°54' W 076°05'1 0.7
2014-Oct-18 14:32N 36°55' W 076°05'1 0.7
2014-Oct-18 13:33N 36°54' W 076°05'0 0.0
2014-Oct-18 12:32N 36°54' W 076°05'0 0.2
2014-Oct-18 11:33N 36°55' W 076°06'0 0.2
2014-Oct-18 10:32N 36°54' W 076°05'0 0.1
2014-Oct-18 09:33N 36°54' W 076°05'0 0.1
2014-Oct-18 08:24N 36°54' W 076°05'0 0.1
2014-Oct-18 07:33N 36°54' W 076°05'0 0.0
2014-Oct-18 06:24N 36°54' W 076°05'0 0.0
2014-Oct-18 05:22N 36°54' W 076°05'1 1.2
2014-Oct-18 04:28N 36°55' W 076°05'1 1.0
2014-Oct-18 03:33N 36°55' W 076°05'0 0.2
2014-Oct-18 02:33N 36°54' W 076°05'0 0.0
2014-Oct-18 01:33N 36°54' W 076°05'1 1.0
2014-Oct-18 00:32N 36°55' W 076°06'1 0.7
2014-Oct-17 23:33N 36°55' W 076°05'0 0.4
2014-Oct-17 22:33N 36°54' W 076°05'1 0.7
2014-Oct-17 21:33N 36°55' W 076°05'0 0.3
2014-Oct-17 20:33N 36°55' W 076°06'0 0.3
2014-Oct-17 19:32N 36°55' W 076°05'1 0.7
2014-Oct-17 18:30N 36°54' W 076°05'0 0.1
2014-Oct-17 17:30N 36°54' W 076°05'0 0.0
2014-Oct-17 16:33N 36°54' W 076°05'0 0.5
2014-Oct-17 15:33N 36°55' W 076°05'1 0.5
2014-Oct-17 14:33N 36°55' W 076°06'0 0.3
2014-Oct-17 13:33N 36°55' W 076°05'0 0.3
2014-Oct-17 12:33N 36°55' W 076°06'0 0.1
2014-Oct-17 11:33N 36°55' W 076°06'1 1.1
2014-Oct-17 10:33N 36°54' W 076°05'0 0.1
2014-Oct-17 09:32N 36°54' W 076°05'0 0.2
2014-Oct-17 08:32N 36°54' W 076°05'0 0.1
2014-Oct-17 07:33N 36°54' W 076°05'0 0.1
2014-Oct-17 06:33N 36°54' W 076°05'0 0.1
2014-Oct-17 05:33N 36°54' W 076°05'0 0.0
2014-Oct-17 04:32N 36°54' W 076°05'1 0.7
2014-Oct-17 03:30N 36°55' W 076°05'1 0.7
2014-Oct-17 02:33N 36°54' W 076°05'0 0.0
2014-Oct-17 01:27N 36°54' W 076°05'0 0.2
2014-Oct-17 00:33N 36°55' W 076°06'0 0.2
2014-Oct-16 23:33N 36°55' W 076°05'0 0.4
2014-Oct-16 22:32N 36°54' W 076°05'1 1.0
2014-Oct-16 21:33N 36°55' W 076°06'1 0.8
2014-Oct-16 20:31N 36°54' W 076°06'1 0.8
2014-Oct-16 19:33N 36°55' W 076°06'1 0.9
2014-Oct-16 18:33N 36°54' W 076°05'0 0.0
2014-Oct-16 17:32N 36°54' W 076°05'0 0.1
2014-Oct-16 16:33N 36°54' W 076°05'0 0.2
2014-Oct-16 15:32N 36°54' W 076°05'0 0.1
2014-Oct-16 14:33N 36°54' W 076°06'0 0.1
2014-Oct-16 13:32N 36°54' W 076°05'0 0.2
2014-Oct-16 12:33N 36°55' W 076°06'0 0.3
2014-Oct-16 11:32N 36°54' W 076°05'0 0.0
2014-Oct-16 10:24N 36°54' W 076°05'0 0.2
2014-Oct-16 09:33N 36°54' W 076°05'0 0.2
2014-Oct-16 08:32N 36°55' W 076°05'1 0.7
2014-Oct-16 07:33N 36°55' W 076°06'0 0.5
2014-Oct-16 06:31N 36°55' W 076°05'1 0.9
2014-Oct-16 05:33N 36°54' W 076°05'0 0.1
2014-Oct-16 04:31N 36°54' W 076°05'0 0.0
2014-Oct-16 03:30N 36°54' W 076°05'0 0.0
2014-Oct-16 02:30N 36°54' W 076°05'0 0.0
2014-Oct-16 01:29N 36°54' W 076°05'1 0.7
2014-Oct-16 00:33N 36°55' W 076°05'1 0.6
2014-Oct-15 23:33N 36°54' W 076°05'0 0.1
2014-Oct-15 22:33N 36°54' W 076°05'0 0.1
2014-Oct-15 21:33N 36°54' W 076°05'1 0.6
2014-Oct-15 20:31N 36°55' W 076°05'0 0.1
2014-Oct-15 19:29N 36°55' W 076°05'0 0.4
2014-Oct-15 18:33N 36°55' W 076°05'1 0.5
2014-Oct-15 17:27N 36°54' W 076°05'0 0.0
2014-Oct-15 16:33N 36°54' W 076°05'0 0.0
2014-Oct-15 15:32N 36°54' W 076°05'0 0.0
2014-Oct-15 14:33N 36°54' W 076°05'0 0.0
2014-Oct-15 13:33N 36°54' W 076°05'1 0.5
2014-Oct-15 12:34N 36°55' W 076°05'0 0.2
2014-Oct-15 11:33N 36°54' W 076°06'0 0.3
2014-Oct-15 10:33N 36°54' W 076°05'0 0.2
2014-Oct-15 09:32N 36°54' W 076°06'1 0.9
2014-Oct-15 08:32N 36°55' W 076°06'1 0.6
2014-Oct-15 07:33N 36°55' W 076°05'0 0.1
2014-Oct-15 06:33N 36°55' W 076°05'0 0.3
2014-Oct-15 05:33N 36°54' W 076°05'0 0.1
2014-Oct-15 04:33N 36°54' W 076°05'0 0.0
2014-Oct-15 03:31N 36°54' W 076°05'0 0.0
2014-Oct-15 02:32N 36°54' W 076°05'0 0.2
2014-Oct-15 01:33N 36°54' W 076°06'0 0.3
2014-Oct-15 00:29N 36°55' W 076°05'1 0.7
2014-Oct-14 23:33N 36°55' W 076°06'1 0.8
2014-Oct-14 22:04N 36°54' W 076°05'1 1.3
2014-Oct-14 21:29N 36°55' W 076°05'1 0.7
2014-Oct-14 20:27N 36°54' W 076°05'0 0.2
2014-Oct-14 19:33N 36°54' W 076°05'1 1.1
2014-Oct-14 18:31N 36°55' W 076°06'1 0.2
2014-Oct-14 14:33N 36°54' W 076°06'0 0.3
2014-Oct-14 13:28N 36°55' W 076°05'0 0.3
2014-Oct-14 12:32N 36°55' W 076°06'0 0.3
2014-Oct-14 11:33N 36°54' W 076°05'0 0.1
2014-Oct-14 10:33N 36°54' W 076°05'1 0.6
2014-Oct-14 09:25N 36°55' W 076°05'1 0.7
2014-Oct-14 08:34N 36°55' W 076°06'1 0.8
2014-Oct-14 07:29N 36°54' W 076°06'1 1.0
2014-Oct-14 06:33N 36°55' W 076°06'1 1.0
2014-Oct-14 05:31N 36°54' W 076°05'0 0.1
2014-Oct-14 04:32N 36°54' W 076°05'0 0.0
2014-Oct-14 03:30N 36°54' W 076°05'0 0.0
2014-Oct-14 02:24N 36°54' W 076°05'0 0.0
2014-Oct-14 01:32N 36°54' W 076°05'0 0.0
2014-Oct-14 00:31N 36°54' W 076°05'0 0.0
2014-Oct-13 23:31N 36°54' W 076°05'0 0.0
2014-Oct-13 22:33N 36°54' W 076°05'0 0.1
2014-Oct-13 21:32N 36°54' W 076°05'0 0.1
2014-Oct-13 20:34N 36°54' W 076°05'0 0.1
2014-Oct-13 19:33N 36°54' W 076°05'0 0.0
2014-Oct-13 18:32N 36°54' W 076°05'1 1.0
2014-Oct-13 17:33N 36°55' W 076°06'0 0.1
2014-Oct-13 16:32N 36°55' W 076°05'1 0.9
2014-Oct-13 15:30N 36°54' W 076°05'1 1.3
2014-Oct-13 14:33N 36°55' W 076°06'1 0.6
2014-Oct-13 13:32N 36°55' W 076°05'1 0.6
2014-Oct-13 12:32N 36°54' W 076°05'0 0.0
2014-Oct-13 11:33N 36°54' W 076°05'0 0.0
2014-Oct-13 10:33N 36°54' W 076°05'0 0.3
2014-Oct-13 09:32N 36°55' W 076°05'0 0.3
2014-Oct-13 08:32N 36°55' W 076°05'1 0.7
2014-Oct-13 07:32N 36°54' W 076°05'0 0.0
2014-Oct-13 06:32N 36°54' W 076°05'0 0.0
2014-Oct-13 05:30N 36°54' W 076°05'0 0.1
2014-Oct-13 04:31N 36°54' W 076°05'0 0.0
2014-Oct-13 03:33N 36°54' W 076°05'0 0.0
2014-Oct-13 02:31N 36°54' W 076°05'0 0.0
2014-Oct-13 01:28N 36°54' W 076°05'0 0.0
2014-Oct-13 00:33N 36°54' W 076°05'0 0.0
2014-Oct-12 23:32N 36°54' W 076°05'0 0.0
2014-Oct-12 22:26N 36°54' W 076°05'1 1.0
2014-Oct-12 21:32N 36°55' W 076°06'1 0.8
2014-Oct-12 20:28N 36°54' W 076°06'1 0.9
2014-Oct-12 19:31N 36°55' W 076°06'1 0.5
2014-Oct-12 18:31N 36°55' W 076°05'0 0.4
2014-Oct-12 17:31N 36°55' W 076°06'1 0.1
2014-Oct-12 05:30N 36°54' W 076°06'0 0.1
2014-Oct-12 04:33N 36°54' W 076°05'0 0.0
2014-Oct-12 03:33N 36°54' W 076°05'0 0.1
2014-Oct-12 02:30N 36°54' W 076°05'0 0.4
2014-Oct-12 01:33N 36°54' W 076°05'0 0.0
2014-Oct-12 00:29N 36°54' W 076°05'0 0.2
2014-Oct-11 23:04N 36°54' W 076°05'3 5.2
2014-Oct-11 22:33N 36°57' W 076°04'181 5.5
2014-Oct-10 13:33N 39°34' W 074°12'9 9.3
2014-Oct-10 12:34N 39°42' W 074°06'3 2.7
2014-Oct-10 11:34N 39°45' W 074°07'0 0.0
2014-Oct-10 10:34N 39°45' W 074°07'0 0.0
2014-Oct-10 09:34N 39°45' W 074°07'0 0.0
2014-Oct-10 08:33N 39°45' W 074°07'0 0.0
2014-Oct-10 07:34N 39°45' W 074°07'4 4.0
2014-Oct-10 06:34N 39°48' W 074°03'9 8.7
2014-Oct-10 05:33N 39°57' W 074°01'20 8.7
2014-Oct-10 03:16N 40°16' W 073°56'13 3.2
2014-Oct-09 23:12N 40°29' W 074°00'1 0.1
2014-Oct-09 09:15N 40°28' W 074°02'0 0.0
2014-Oct-08 20:07N 40°29' W 074°01'  

Dump ship's entire track history